createdAt,value
2023-07-16T00:02:01.187Z,4.28
2023-07-16T00:05:08.445Z,4.92
2023-07-16T00:08:07.974Z,3.55
2023-07-16T00:11:14.013Z,4.78
2023-07-16T00:14:20.487Z,5.83
2023-07-16T00:17:27.610Z,7.95
2023-07-16T00:20:33.957Z,5.12
2023-07-16T00:23:39.495Z,6.70
2023-07-16T00:26:45.850Z,3.58
2023-07-16T00:29:51.922Z,6.78
2023-07-16T00:32:58.115Z,6.78
2023-07-16T00:36:05.776Z,6.58
2023-07-16T00:39:11.658Z,8.33
2023-07-16T00:42:17.898Z,8.38
2023-07-16T00:45:26.310Z,4.83
2023-07-16T00:48:32.685Z,5.83
2023-07-16T00:51:40.072Z,3.80
2023-07-16T00:54:46.360Z,7.42
2023-07-16T00:57:54.863Z,6.92
2023-07-16T01:01:01.449Z,4.15
2023-07-16T01:04:07.599Z,5.65
2023-07-16T01:07:15.504Z,4.28
2023-07-16T01:10:22.382Z,4.92
2023-07-16T01:13:28.033Z,4.95
2023-07-16T01:16:38.752Z,4.25
2023-07-16T01:19:44.860Z,4.87
2023-07-16T01:22:58.703Z,9.30
2023-07-16T01:26:24.527Z,5.05
2023-07-16T01:29:46.779Z,4.35
2023-07-16T01:32:54.125Z,3.92
2023-07-16T01:36:02.082Z,5.55
2023-07-16T01:39:08.955Z,5.83
2023-07-16T01:42:16.960Z,6.15
2023-07-16T01:45:24.463Z,4.60
2023-07-16T01:48:49.758Z,4.70
2023-07-16T01:51:56.272Z,5.33
2023-07-16T01:55:02.834Z,4.90
2023-07-16T01:58:10.956Z,4.80
2023-07-16T02:01:18.136Z,6.05
2023-07-16T02:04:24.171Z,5.50
2023-07-16T02:07:32.929Z,4.12
2023-07-16T02:10:39.585Z,3.65
2023-07-16T02:13:46.055Z,6.42
2023-07-16T02:16:53.232Z,4.95
2023-07-16T02:19:59.527Z,4.78
2023-07-16T02:23:05.081Z,5.17
2023-07-16T02:26:10.749Z,6.28
2023-07-16T02:29:16.769Z,4.92
2023-07-16T02:32:23.583Z,5.53
2023-07-16T02:35:31.653Z,6.30
2023-07-16T02:38:39.662Z,5.65
2023-07-16T02:41:45.398Z,7.47
2023-07-16T02:44:52.638Z,8.60
2023-07-16T02:47:59.179Z,4.53
2023-07-16T02:51:05.936Z,5.92
2023-07-16T02:54:12.511Z,4.60
2023-07-16T02:57:19.597Z,5.65
2023-07-16T03:00:25.773Z,4.67
2023-07-16T03:03:34.882Z,3.87
2023-07-16T03:06:38.002Z,5.97
2023-07-16T03:09:44.553Z,6.05
2023-07-16T03:12:50.923Z,5.62
2023-07-16T03:15:57.313Z,6.40
2023-07-16T03:19:04.323Z,6.87
2023-07-16T03:22:10.671Z,5.15
2023-07-16T03:25:17.827Z,4.00
2023-07-16T03:28:23.507Z,6.92
2023-07-16T03:31:30.429Z,4.15
2023-07-16T03:34:36.960Z,4.37
2023-07-16T03:37:43.525Z,5.78
2023-07-16T03:40:50.713Z,7.00
2023-07-16T03:43:58.136Z,4.53
2023-07-16T03:47:05.509Z,5.03
2023-07-16T03:50:11.711Z,5.75
2023-07-16T03:53:19.076Z,6.65
2023-07-16T03:56:25.726Z,4.92
2023-07-16T03:59:31.840Z,5.40
2023-07-16T04:02:39.606Z,6.78
2023-07-16T04:05:48.122Z,6.00
2023-07-16T04:08:54.904Z,5.00
2023-07-16T04:12:03.639Z,4.03
2023-07-16T04:15:13.017Z,7.60
2023-07-16T04:18:18.411Z,5.85
2023-07-16T04:21:23.208Z,7.33
2023-07-16T04:24:29.441Z,4.90
2023-07-16T04:27:36.364Z,4.83
2023-07-16T04:30:45.424Z,5.33
2023-07-16T04:33:51.578Z,5.67
2023-07-16T04:36:59.338Z,4.92
2023-07-16T04:40:05.586Z,8.40
2023-07-16T04:43:12.565Z,8.83
2023-07-16T04:46:20.322Z,5.05
2023-07-16T04:49:26.597Z,5.78
2023-07-16T04:52:33.567Z,5.12
2023-07-16T04:55:40.498Z,4.72
2023-07-16T04:58:47.452Z,5.85
2023-07-16T05:01:53.631Z,6.25
2023-07-16T05:04:58.844Z,5.35
2023-07-16T05:08:04.105Z,9.05
2023-07-16T05:11:11.079Z,4.75
2023-07-16T05:14:15.867Z,4.75
2023-07-16T05:17:20.405Z,6.08
2023-07-16T05:20:27.098Z,5.90
2023-07-16T05:23:34.892Z,4.45
2023-07-16T05:26:40.589Z,5.35
2023-07-16T05:29:46.929Z,5.28
2023-07-16T05:32:53.833Z,4.83
2023-07-16T05:36:03.945Z,6.53
2023-07-16T05:39:10.456Z,3.98
2023-07-16T05:42:17.718Z,4.47
2023-07-16T05:45:24.626Z,2.92
2023-07-16T05:48:31.446Z,6.72
2023-07-16T05:51:37.735Z,4.58
2023-07-16T05:54:44.552Z,6.17
2023-07-16T05:57:51.514Z,6.70
2023-07-16T06:00:58.280Z,4.55
2023-07-16T06:04:05.918Z,4.25
2023-07-16T06:07:13.177Z,5.55
2023-07-16T06:10:20.878Z,3.75
2023-07-16T06:13:27.254Z,7.12
2023-07-16T06:16:34.418Z,7.95
2023-07-16T06:19:41.323Z,5.62
2023-07-16T06:22:47.832Z,4.35
2023-07-16T06:25:56.540Z,10.05
2023-07-16T06:29:02.664Z,3.08
2023-07-16T06:32:13.917Z,4.12
2023-07-16T06:35:20.745Z,4.67
2023-07-16T06:38:29.653Z,3.35
2023-07-16T06:41:34.499Z,4.50
2023-07-16T06:44:41.605Z,5.72
2023-07-16T06:47:47.527Z,5.40
2023-07-16T06:50:55.540Z,2.95
2023-07-16T06:54:00.850Z,5.62
2023-07-16T06:57:06.539Z,4.28
2023-07-16T07:00:12.716Z,3.08
2023-07-16T07:03:19.768Z,5.10
2023-07-16T07:06:26.461Z,3.42
2023-07-16T07:09:33.778Z,9.28
2023-07-16T07:12:43.604Z,3.87
2023-07-16T07:15:50.967Z,3.08
2023-07-16T07:18:57.674Z,3.40
2023-07-16T07:22:06.497Z,3.42
2023-07-16T07:25:12.757Z,3.17
2023-07-16T07:28:20.160Z,3.95
2023-07-16T07:31:27.041Z,4.72
2023-07-16T07:34:36.510Z,4.25
2023-07-16T07:37:42.739Z,4.58
2023-07-16T07:40:49.724Z,6.10
2023-07-16T07:43:57.120Z,3.33
2023-07-16T07:47:03.974Z,5.28
2023-07-16T07:50:09.425Z,3.80
2023-07-16T07:53:15.107Z,5.28
2023-07-16T07:56:21.802Z,3.55
2023-07-16T07:59:27.314Z,3.12
2023-07-16T08:02:34.118Z,4.35
2023-07-16T08:05:41.487Z,2.87
2023-07-16T08:08:48.957Z,4.22
2023-07-16T08:11:54.951Z,3.15
2023-07-16T08:15:04.002Z,2.35
2023-07-16T08:18:11.945Z,6.00
2023-07-16T08:21:18.448Z,2.52
2023-07-16T08:24:25.111Z,2.15
2023-07-16T08:27:30.631Z,5.65
2023-07-16T08:30:36.229Z,3.22
2023-07-16T08:33:43.748Z,5.58
2023-07-16T08:36:52.463Z,4.10
2023-07-16T08:39:59.444Z,2.05
2023-07-16T08:43:06.732Z,4.65
2023-07-16T08:46:14.039Z,4.25
2023-07-16T08:49:21.087Z,4.20
2023-07-16T08:52:26.944Z,2.58
2023-07-16T08:55:34.038Z,4.47
2023-07-16T08:58:41.849Z,5.62
2023-07-16T09:01:48.463Z,3.90
2023-07-16T09:04:57.067Z,2.42
2023-07-16T09:08:03.704Z,3.55
2023-07-16T09:11:12.028Z,4.80
2023-07-16T09:14:19.341Z,4.17
2023-07-16T09:17:25.970Z,3.87
2023-07-16T09:20:33.905Z,2.47
2023-07-16T09:23:41.256Z,5.10
2023-07-16T09:26:50.171Z,5.35
2023-07-16T09:29:58.010Z,2.92
2023-07-16T09:33:05.207Z,3.30
2023-07-16T09:36:11.064Z,3.72
2023-07-16T09:39:16.697Z,3.83
2023-07-16T09:42:22.589Z,4.33
2023-07-16T09:45:35.032Z,4.10
2023-07-16T09:51:48.230Z,3.08
2023-07-16T09:54:54.353Z,5.53
2023-07-16T09:58:00.858Z,2.58
2023-07-16T10:01:08.865Z,6.33
2023-07-16T10:04:14.884Z,6.70
2023-07-16T10:07:22.947Z,6.17
2023-07-16T10:10:29.917Z,2.20
2023-07-16T10:13:37.042Z,3.62
2023-07-16T10:16:46.153Z,3.65
2023-07-16T10:20:21.604Z,2.30
2023-07-16T10:23:31.457Z,3.35
2023-07-16T10:26:43.649Z,5.60
2023-07-16T10:32:54.111Z,3.83
2023-07-16T10:36:02.865Z,4.90
2023-07-16T10:39:08.519Z,2.25
2023-07-16T10:42:14.623Z,3.92
2023-07-16T10:45:21.432Z,2.30
2023-07-16T10:48:26.524Z,2.80
2023-07-16T10:51:31.935Z,1.70
2023-07-16T10:54:38.114Z,3.77
2023-07-16T10:57:46.209Z,2.02
2023-07-16T11:00:59.620Z,3.83
2023-07-16T11:04:06.629Z,2.92
2023-07-16T11:07:12.569Z,3.98
2023-07-16T11:10:18.251Z,6.17
2023-07-16T11:13:25.124Z,3.05
2023-07-16T11:16:33.883Z,5.92
2023-07-16T11:19:40.853Z,2.55
2023-07-16T11:22:46.229Z,3.83
2023-07-16T11:25:52.956Z,4.20
2023-07-16T11:28:58.807Z,5.75
2023-07-16T11:32:08.317Z,3.02
2023-07-16T11:35:16.151Z,4.78
2023-07-16T11:38:21.535Z,2.45
2023-07-16T11:41:29.135Z,3.37
2023-07-16T11:44:35.564Z,1.67
2023-07-16T11:47:43.662Z,3.10
2023-07-16T11:50:43.497Z,3.55
2023-07-16T11:53:42.891Z,3.20
2023-07-16T11:56:50.087Z,5.17
2023-07-16T11:59:56.153Z,2.67
2023-07-16T12:03:03.719Z,2.20
2023-07-16T12:06:10.226Z,3.12
2023-07-16T12:09:17.423Z,1.40
2023-07-16T12:12:24.323Z,3.20
2023-07-16T12:15:29.388Z,1.90
2023-07-16T12:18:35.746Z,2.00
2023-07-16T12:21:40.836Z,4.12
2023-07-16T12:24:48.087Z,3.25
2023-07-16T12:27:56.321Z,3.00
2023-07-16T12:31:02.168Z,2.92
2023-07-16T12:34:11.727Z,2.72
2023-07-16T12:37:18.240Z,3.17
2023-07-16T12:40:24.914Z,2.50
2023-07-16T12:43:34.090Z,7.55
2023-07-16T12:46:39.317Z,2.45
2023-07-16T12:49:45.900Z,1.67
2023-07-16T12:52:53.213Z,2.02
2023-07-16T12:56:00.110Z,1.80
2023-07-16T12:59:06.169Z,1.60
2023-07-16T13:02:11.920Z,1.77
2023-07-16T13:05:20.131Z,3.80
2023-07-16T13:08:27.832Z,3.27
2023-07-16T13:11:33.746Z,3.22
2023-07-16T13:14:40.261Z,4.67
2023-07-16T13:17:46.322Z,4.08
2023-07-16T13:20:52.657Z,1.70
2023-07-16T13:24:00.849Z,3.30
2023-07-16T13:27:08.611Z,2.72
2023-07-16T13:30:14.851Z,2.83
2023-07-16T13:33:20.311Z,1.60
2023-07-16T13:36:28.403Z,2.60
2023-07-16T13:39:36.435Z,1.67
2023-07-16T13:42:44.052Z,7.97
2023-07-16T13:45:50.755Z,2.95
2023-07-16T13:48:59.469Z,1.90
2023-07-16T13:52:05.932Z,2.58
2023-07-16T13:55:13.272Z,1.92
2023-07-16T13:58:20.209Z,2.17
2023-07-16T14:01:27.819Z,2.47
2023-07-16T14:04:34.170Z,1.90
2023-07-16T14:07:41.343Z,3.70
2023-07-16T14:10:47.880Z,1.52
2023-07-16T14:13:57.784Z,1.57
2023-07-16T14:17:04.558Z,2.08
2023-07-16T14:20:12.062Z,2.05
2023-07-16T14:23:19.026Z,3.33
2023-07-16T14:26:25.055Z,3.85
2023-07-16T14:29:32.377Z,2.05
2023-07-16T14:32:39.312Z,1.72
2023-07-16T14:35:48.997Z,3.15
2023-07-16T14:38:49.447Z,2.80
2023-07-16T14:41:56.148Z,1.70
2023-07-16T14:45:02.279Z,9.40
2023-07-16T14:48:09.781Z,1.87
2023-07-16T14:51:16.778Z,2.10
2023-07-16T14:54:23.306Z,3.33
2023-07-16T14:57:30.411Z,3.45
2023-07-16T15:00:37.899Z,1.90
2023-07-16T15:03:48.410Z,3.98
2023-07-16T15:06:58.967Z,5.67
2023-07-16T15:10:09.000Z,2.12
2023-07-16T15:13:15.274Z,1.75
2023-07-16T15:16:21.647Z,1.98
2023-07-16T15:19:29.001Z,4.10
2023-07-16T15:22:35.465Z,2.75
2023-07-16T15:25:41.641Z,2.20
2023-07-16T15:28:50.000Z,2.52
2023-07-16T15:31:56.536Z,1.40
2023-07-16T15:35:02.175Z,2.58
2023-07-16T15:38:11.923Z,2.65
2023-07-16T15:41:19.634Z,4.03
2023-07-16T15:44:28.146Z,4.03
2023-07-16T15:47:34.765Z,5.20
2023-07-16T15:50:42.198Z,4.78
2023-07-16T15:53:50.123Z,3.98
2023-07-16T15:56:58.152Z,3.20
2023-07-16T16:00:06.053Z,2.35
2023-07-16T16:03:12.570Z,3.60
2023-07-16T16:06:20.225Z,3.75
2023-07-16T16:09:26.824Z,6.87
2023-07-16T16:12:33.145Z,5.37
2023-07-16T16:15:41.453Z,6.35
2023-07-16T16:18:46.996Z,2.65
2023-07-16T16:21:53.376Z,3.75
2023-07-16T16:25:02.229Z,4.60
2023-07-16T16:28:09.731Z,3.95
2023-07-16T16:31:15.208Z,1.50
2023-07-16T16:34:20.626Z,2.60
2023-07-16T16:37:26.656Z,3.70
2023-07-16T16:40:32.414Z,2.90
2023-07-16T16:43:39.690Z,3.33
2023-07-16T16:46:47.536Z,2.45
2023-07-16T16:49:52.064Z,2.52
2023-07-16T16:53:01.134Z,3.90
2023-07-16T16:56:07.221Z,5.83
2023-07-16T16:59:12.221Z,4.92
2023-07-16T17:02:18.773Z,5.90
2023-07-16T17:05:25.643Z,6.92
2023-07-16T17:08:33.293Z,4.80
2023-07-16T17:11:39.003Z,5.72
2023-07-16T17:14:49.323Z,5.75
2023-07-16T17:17:58.866Z,5.50
2023-07-16T17:21:04.607Z,3.25
2023-07-16T17:24:09.568Z,3.12
2023-07-16T17:27:17.530Z,3.70
2023-07-16T17:30:24.304Z,4.00
2023-07-16T17:33:30.005Z,4.28
2023-07-16T17:36:35.838Z,5.62
2023-07-16T17:39:42.441Z,9.35
2023-07-16T17:42:49.233Z,14.13
2023-07-16T17:45:55.791Z,12.07
2023-07-16T17:49:03.671Z,13.65
2023-07-16T17:52:11.233Z,10.08
2023-07-16T17:55:18.470Z,105.87
2023-07-16T17:58:25.466Z,68.85
2023-07-16T18:01:34.497Z,113.83
2023-07-16T18:04:41.769Z,124.20
2023-07-16T18:07:48.344Z,139.28
2023-07-16T18:10:54.451Z,140.18
2023-07-16T18:14:01.890Z,143.82
2023-07-16T18:17:08.738Z,121.47
2023-07-16T18:20:18.708Z,104.53
2023-07-16T18:23:24.365Z,90.77
2023-07-16T18:26:30.831Z,72.80
2023-07-16T18:29:39.378Z,78.62
2023-07-16T18:32:45.650Z,70.65
2023-07-16T18:35:52.016Z,69.85
2023-07-16T18:38:58.490Z,53.78
2023-07-16T18:42:05.263Z,58.25
2023-07-16T18:45:13.879Z,41.85
2023-07-16T18:48:21.677Z,40.45
2023-07-16T18:51:28.543Z,42.05
2023-07-16T18:54:34.023Z,22.75
2023-07-16T18:57:39.975Z,22.67
2023-07-16T19:00:46.437Z,20.37
2023-07-16T19:03:54.386Z,19.77
2023-07-16T19:07:02.071Z,18.40
2023-07-16T19:10:09.046Z,19.32
2023-07-16T19:13:15.002Z,18.10
2023-07-16T19:16:22.960Z,16.87
2023-07-16T19:19:28.218Z,16.85
2023-07-16T19:22:37.188Z,12.25
2023-07-16T19:25:43.779Z,10.18
2023-07-16T19:28:49.796Z,11.70
2023-07-16T19:31:57.545Z,11.75
2023-07-16T19:35:03.330Z,9.08
2023-07-16T19:38:10.984Z,9.55
2023-07-16T19:41:20.809Z,9.30
2023-07-16T19:44:27.270Z,10.63
2023-07-16T19:47:33.148Z,8.53
2023-07-16T19:50:39.789Z,11.15
2023-07-16T19:53:44.498Z,11.38
2023-07-16T19:56:50.681Z,11.15
2023-07-16T19:59:57.190Z,11.00
2023-07-16T20:02:59.773Z,10.45
2023-07-16T20:05:53.940Z,13.18
2023-07-16T20:09:00.720Z,26.20
2023-07-16T20:12:09.084Z,27.42
2023-07-16T20:15:15.186Z,55.00
2023-07-16T20:18:22.660Z,47.90
2023-07-16T20:21:32.846Z,44.40
2023-07-16T20:24:39.516Z,43.85
2023-07-16T20:27:45.680Z,39.25
2023-07-16T20:30:52.504Z,36.20
2023-07-16T20:33:59.489Z,25.43
2023-07-16T20:37:05.402Z,26.42
2023-07-16T20:40:13.925Z,22.48
2023-07-16T20:43:23.556Z,20.88
2023-07-16T20:46:30.431Z,20.23
2023-07-16T20:49:37.627Z,18.32
2023-07-16T20:52:44.009Z,21.65
2023-07-16T20:55:52.832Z,20.17
2023-07-16T20:59:00.523Z,21.42
2023-07-16T21:02:07.655Z,23.57
2023-07-16T21:05:14.380Z,20.57
2023-07-16T21:08:21.368Z,22.90
2023-07-16T21:11:26.928Z,25.32
2023-07-16T21:14:33.804Z,24.10
2023-07-16T21:17:40.407Z,23.85
2023-07-16T21:20:47.681Z,25.65
2023-07-16T21:23:56.705Z,18.32
2023-07-16T21:27:02.646Z,22.45
2023-07-16T21:30:09.237Z,19.48
2023-07-16T21:33:16.332Z,27.25
2023-07-16T21:36:22.278Z,19.20
2023-07-16T21:39:28.645Z,19.77
2023-07-16T21:42:35.425Z,16.42
2023-07-16T21:45:41.786Z,15.30
2023-07-16T21:48:48.277Z,17.10
2023-07-16T21:51:55.191Z,13.83
2023-07-16T21:55:03.064Z,17.70
2023-07-16T21:58:07.992Z,16.77
2023-07-16T22:01:15.714Z,19.52
2023-07-16T22:04:21.551Z,15.72
2023-07-16T22:07:28.938Z,17.98
2023-07-16T22:10:36.522Z,19.77
2023-07-16T22:13:42.581Z,15.32
2023-07-16T22:16:49.729Z,13.55
2023-07-16T22:19:50.912Z,12.75
2023-07-16T22:22:57.669Z,15.08
2023-07-16T22:26:04.481Z,13.58
2023-07-16T22:29:12.992Z,12.60
2023-07-16T22:32:19.620Z,12.05
2023-07-16T22:35:28.073Z,7.75
2023-07-16T22:38:32.930Z,13.40
2023-07-16T22:41:39.291Z,7.60
2023-07-16T22:44:45.665Z,7.35
2023-07-16T22:47:53.183Z,9.53
2023-07-16T22:50:59.732Z,11.15
2023-07-16T22:54:07.729Z,11.40
2023-07-16T22:57:12.671Z,6.37
2023-07-16T23:00:19.549Z,8.50
2023-07-16T23:03:26.032Z,10.40
2023-07-16T23:06:33.014Z,10.53
2023-07-16T23:09:39.906Z,7.85
2023-07-16T23:12:46.243Z,10.50
2023-07-16T23:15:53.925Z,12.90
2023-07-16T23:19:01.053Z,7.75
2023-07-16T23:22:07.603Z,13.35
2023-07-16T23:25:14.988Z,6.30
2023-07-16T23:28:21.152Z,8.75
2023-07-16T23:31:27.133Z,10.23
2023-07-16T23:34:33.556Z,9.70
2023-07-16T23:37:39.872Z,9.48
2023-07-16T23:40:46.755Z,8.15
2023-07-16T23:43:54.535Z,9.90
2023-07-16T23:47:01.423Z,8.35
2023-07-16T23:50:08.502Z,8.23
2023-07-16T23:53:14.734Z,8.33
2023-07-16T23:56:22.488Z,10.32
2023-07-16T23:59:29.464Z,7.75
